sensor_id;sensor_type;location;lat;lon;timestamp;P1;durP1;ratioP1;P2;durP2;ratioP2
14900;SDS011;7542;49.078;9.194;2023-04-10T00:00:04;1.53;;;1.53;;
14900;SDS011;7542;49.078;9.194;2023-04-10T00:01:08;1.50;;;1.50;;
14900;SDS011;7542;49.078;9.194;2023-04-10T00:02:10;1.57;;;1.57;;
14900;SDS011;7542;49.078;9.194;2023-04-10T00:03:12;1.70;;;1.70;;
14900;SDS011;7542;49.078;9.194;2023-04-10T00:04:15;1.67;;;1.67;;
14900;SDS011;7542;49.078;9.194;2023-04-10T00:05:17;1.80;;;1.70;;
14900;SDS011;7542;49.078;9.194;2023-04-10T00:06:19;1.73;;;1.63;;
14900;SDS011;7542;49.078;9.194;2023-04-10T00:07:21;2.03;;;1.93;;
14900;SDS011;7542;49.078;9.194;2023-04-10T00:08:24;1.90;;;1.90;;
14900;SDS011;7542;49.078;9.194;2023-04-10T00:09:27;1.77;;;1.70;;
14900;SDS011;7542;49.078;9.194;2023-04-10T00:10:30;1.70;;;1.60;;
14900;SDS011;7542;49.078;9.194;2023-04-10T00:11:33;1.47;;;1.47;;
14900;SDS011;7542;49.078;9.194;2023-04-10T00:12:35;1.70;;;1.70;;
14900;SDS011;7542;49.078;9.194;2023-04-10T00:13:38;1.70;;;1.70;;
14900;SDS011;7542;49.078;9.194;2023-04-10T00:14:40;1.43;;;1.43;;
14900;SDS011;7542;49.078;9.194;2023-04-10T00:15:42;1.53;;;1.53;;
14900;SDS011;7542;49.078;9.194;2023-04-10T00:16:44;1.83;;;1.73;;
14900;SDS011;7542;49.078;9.194;2023-04-10T00:17:46;1.80;;;1.70;;
14900;SDS011;7542;49.078;9.194;2023-04-10T00:18:50;1.47;;;1.47;;
14900;SDS011;7542;49.078;9.194;2023-04-10T00:19:52;1.80;;;1.80;;
14900;SDS011;7542;49.078;9.194;2023-04-10T00:20:54;1.77;;;1.67;;
14900;SDS011;7542;49.078;9.194;2023-04-10T00:21:56;1.67;;;1.67;;
14900;SDS011;7542;49.078;9.194;2023-04-10T00:22:58;1.77;;;1.70;;
14900;SDS011;7542;49.078;9.194;2023-04-10T00:24:00;1.57;;;1.57;;
14900;SDS011;7542;49.078;9.194;2023-04-10T00:25:02;1.57;;;1.57;;
14900;SDS011;7542;49.078;9.194;2023-04-10T00:26:06;1.87;;;1.77;;
14900;SDS011;7542;49.078;9.194;2023-04-10T00:27:09;1.77;;;1.67;;
14900;SDS011;7542;49.078;9.194;2023-04-10T00:28:11;1.50;;;1.50;;
14900;SDS011;7542;49.078;9.194;2023-04-10T00:29:12;1.90;;;1.80;;
14900;SDS011;7542;49.078;9.194;2023-04-10T00:30:14;1.63;;;1.63;;
14900;SDS011;7542;49.078;9.194;2023-04-10T00:31:16;1.70;;;1.60;;
14900;SDS011;7542;49.078;9.194;2023-04-10T00:32:18;1.77;;;1.77;;
14900;SDS011;7542;49.078;9.194;2023-04-10T00:33:20;1.77;;;1.77;;
14900;SDS011;7542;49.078;9.194;2023-04-10T00:34:23;1.60;;;1.60;;
14900;SDS011;7542;49.078;9.194;2023-04-10T00:35:24;1.90;;;1.90;;
14900;SDS011;7542;49.078;9.194;2023-04-10T00:36:27;1.50;;;1.50;;
14900;SDS011;7542;49.078;9.194;2023-04-10T00:37:29;1.73;;;1.63;;
14900;SDS011;7542;49.078;9.194;2023-04-10T00:38:31;2.07;;;1.60;;
14900;SDS011;7542;49.078;9.194;2023-04-10T00:39:33;1.70;;;1.60;;
14900;SDS011;7542;49.078;9.194;2023-04-10T00:40:35;1.60;;;1.60;;
14900;SDS011;7542;49.078;9.194;2023-04-10T00:41:37;1.90;;;1.90;;
14900;SDS011;7542;49.078;9.194;2023-04-10T00:42:39;1.80;;;1.70;;
14900;SDS011;7542;49.078;9.194;2023-04-10T00:43:42;1.67;;;1.67;;
14900;SDS011;7542;49.078;9.194;2023-04-10T00:44:46;1.80;;;1.70;;
14900;SDS011;7542;49.078;9.194;2023-04-10T00:45:48;1.27;;;1.27;;
14900;SDS011;7542;49.078;9.194;2023-04-10T00:46:51;1.67;;;1.67;;
14900;SDS011;7542;49.078;9.194;2023-04-10T00:47:53;1.70;;;1.70;;
14900;SDS011;7542;49.078;9.194;2023-04-10T00:48:56;1.90;;;1.80;;
14900;SDS011;7542;49.078;9.194;2023-04-10T00:49:58;1.40;;;1.40;;
14900;SDS011;7542;49.078;9.194;2023-04-10T00:51:01;1.57;;;1.47;;
14900;SDS011;7542;49.078;9.194;2023-04-10T00:52:06;2.07;;;1.97;;
14900;SDS011;7542;49.078;9.194;2023-04-10T00:53:08;2.00;;;1.90;;
14900;SDS011;7542;49.078;9.194;2023-04-10T00:54:10;1.63;;;1.63;;
14900;SDS011;7542;49.078;9.194;2023-04-10T00:55:13;1.90;;;1.80;;
14900;SDS011;7542;49.078;9.194;2023-04-10T00:56:16;1.60;;;1.60;;
14900;SDS011;7542;49.078;9.194;2023-04-10T00:57:19;1.67;;;1.57;;
14900;SDS011;7542;49.078;9.194;2023-04-10T00:58:21;1.47;;;1.47;;
14900;SDS011;7542;49.078;9.194;2023-04-10T00:59:23;1.60;;;1.60;;
14900;SDS011;7542;49.078;9.194;2023-04-10T01:00:25;1.63;;;1.57;;
14900;SDS011;7542;49.078;9.194;2023-04-10T01:01:27;1.80;;;1.70;;
14900;SDS011;7542;49.078;9.194;2023-04-10T01:02:30;1.53;;;1.53;;
14900;SDS011;7542;49.078;9.194;2023-04-10T01:03:32;1.50;;;1.47;;
14900;SDS011;7542;49.078;9.194;2023-04-10T01:04:36;1.60;;;1.60;;
14900;SDS011;7542;49.078;9.194;2023-04-10T01:05:40;1.50;;;1.50;;
14900;SDS011;7542;49.078;9.194;2023-04-10T01:07:06;1.60;;;1.60;;
14900;SDS011;7542;49.078;9.194;2023-04-10T01:08:11;1.50;;;1.50;;
14900;SDS011;7542;49.078;9.194;2023-04-10T01:11:12;1.67;;;1.57;;
14900;SDS011;7542;49.078;9.194;2023-04-10T01:15:26;1.70;;;1.60;;
14900;SDS011;7542;49.078;9.194;2023-04-10T01:17:11;1.60;;;1.60;;
14900;SDS011;7542;49.078;9.194;2023-04-10T01:18:18;1.60;;;1.60;;
14900;SDS011;7542;49.078;9.194;2023-04-10T01:19:44;1.60;;;1.60;;
14900;SDS011;7542;49.078;9.194;2023-04-10T01:21:12;1.50;;;1.40;;
14900;SDS011;7542;49.078;9.194;2023-04-10T01:22:17;1.60;;;1.60;;
14900;SDS011;7542;49.078;9.194;2023-04-10T01:25:18;1.70;;;1.60;;
14900;SDS011;7542;49.078;9.194;2023-04-10T01:26:41;1.50;;;1.50;;
14900;SDS011;7542;49.078;9.194;2023-04-10T01:29:19;1.50;;;1.50;;
14900;SDS011;7542;49.078;9.194;2023-04-10T01:30:27;1.47;;;1.47;;
14900;SDS011;7542;49.078;9.194;2023-04-10T01:31:34;1.60;;;1.60;;
14900;SDS011;7542;49.078;9.194;2023-04-10T01:32:42;1.63;;;1.63;;
14900;SDS011;7542;49.078;9.194;2023-04-10T01:33:48;1.53;;;1.43;;
14900;SDS011;7542;49.078;9.194;2023-04-10T01:34:57;1.73;;;1.70;;
14900;SDS011;7542;49.078;9.194;2023-04-10T01:36:07;1.40;;;1.40;;
14900;SDS011;7542;49.078;9.194;2023-04-10T01:37:14;1.57;;;1.50;;
14900;SDS011;7542;49.078;9.194;2023-04-10T01:38:21;1.73;;;1.73;;
14900;SDS011;7542;49.078;9.194;2023-04-10T01:39:26;1.37;;;1.37;;
14900;SDS011;7542;49.078;9.194;2023-04-10T01:40:31;1.50;;;1.50;;
14900;SDS011;7542;49.078;9.194;2023-04-10T01:41:37;1.70;;;1.60;;
14900;SDS011;7542;49.078;9.194;2023-04-10T01:42:46;1.80;;;1.70;;
14900;SDS011;7542;49.078;9.194;2023-04-10T01:43:53;1.83;;;1.73;;
14900;SDS011;7542;49.078;9.194;2023-04-10T01:44:58;1.37;;;1.37;;
14900;SDS011;7542;49.078;9.194;2023-04-10T01:46:02;1.70;;;1.60;;
14900;SDS011;7542;49.078;9.194;2023-04-10T01:47:06;1.50;;;1.50;;
14900;SDS011;7542;49.078;9.194;2023-04-10T01:48:08;1.50;;;1.50;;
14900;SDS011;7542;49.078;9.194;2023-04-10T01:49:11;1.60;;;1.50;;
14900;SDS011;7542;49.078;9.194;2023-04-10T01:50:14;1.73;;;1.63;;
14900;SDS011;7542;49.078;9.194;2023-04-10T01:51:17;1.47;;;1.47;;
14900;SDS011;7542;49.078;9.194;2023-04-10T01:52:21;1.43;;;1.43;;
14900;SDS011;7542;49.078;9.194;2023-04-10T01:53:24;1.73;;;1.70;;
14900;SDS011;7542;49.078;9.194;2023-04-10T01:54:28;1.30;;;1.30;;
14900;SDS011;7542;49.078;9.194;2023-04-10T01:55:33;1.60;;;1.50;;
14900;SDS011;7542;49.078;9.194;2023-04-10T01:56:40;1.60;;;1.60;;
14900;SDS011;7542;49.078;9.194;2023-04-10T01:57:42;1.50;;;1.50;;
14900;SDS011;7542;49.078;9.194;2023-04-10T01:58:45;1.97;;;1.87;;
14900;SDS011;7542;49.078;9.194;2023-04-10T01:59:48;1.50;;;1.50;;
14900;SDS011;7542;49.078;9.194;2023-04-10T02:00:50;1.70;;;1.70;;
14900;SDS011;7542;49.078;9.194;2023-04-10T02:01:56;1.57;;;1.57;;
14900;SDS011;7542;49.078;9.194;2023-04-10T02:02:59;1.30;;;1.30;;
14900;SDS011;7542;49.078;9.194;2023-04-10T02:04:01;1.33;;;1.33;;
14900;SDS011;7542;49.078;9.194;2023-04-10T02:05:04;1.40;;;1.40;;
14900;SDS011;7542;49.078;9.194;2023-04-10T02:07:19;1.50;;;1.50;;
14900;SDS011;7542;49.078;9.194;2023-04-10T02:08:41;1.60;;;1.60;;
14900;SDS011;7542;49.078;9.194;2023-04-10T02:12:58;1.60;;;1.60;;
14900;SDS011;7542;49.078;9.194;2023-04-10T02:14:07;1.50;;;1.50;;
14900;SDS011;7542;49.078;9.194;2023-04-10T02:15:12;1.60;;;1.60;;
14900;SDS011;7542;49.078;9.194;2023-04-10T02:16:19;1.70;;;1.70;;
14900;SDS011;7542;49.078;9.194;2023-04-10T02:17:25;1.83;;;1.73;;
14900;SDS011;7542;49.078;9.194;2023-04-10T02:18:31;1.67;;;1.67;;
14900;SDS011;7542;49.078;9.194;2023-04-10T02:19:36;1.67;;;1.60;;
14900;SDS011;7542;49.078;9.194;2023-04-10T02:20:41;1.63;;;1.63;;
14900;SDS011;7542;49.078;9.194;2023-04-10T02:21:44;1.57;;;1.57;;
14900;SDS011;7542;49.078;9.194;2023-04-10T02:22:47;1.57;;;1.57;;
14900;SDS011;7542;49.078;9.194;2023-04-10T02:23:50;1.67;;;1.57;;
14900;SDS011;7542;49.078;9.194;2023-04-10T02:24:52;1.50;;;1.50;;
14900;SDS011;7542;49.078;9.194;2023-04-10T02:25:55;1.40;;;1.40;;
14900;SDS011;7542;49.078;9.194;2023-04-10T02:26:57;1.37;;;1.37;;
14900;SDS011;7542;49.078;9.194;2023-04-10T02:28:06;1.63;;;1.60;;
14900;SDS011;7542;49.078;9.194;2023-04-10T02:29:08;1.50;;;1.50;;
14900;SDS011;7542;49.078;9.194;2023-04-10T02:30:10;1.33;;;1.33;;
14900;SDS011;7542;49.078;9.194;2023-04-10T02:31:12;1.30;;;1.30;;
14900;SDS011;7542;49.078;9.194;2023-04-10T02:32:16;1.50;;;1.50;;
14900;SDS011;7542;49.078;9.194;2023-04-10T02:33:19;1.70;;;1.60;;
14900;SDS011;7542;49.078;9.194;2023-04-10T02:34:21;1.67;;;1.67;;
14900;SDS011;7542;49.078;9.194;2023-04-10T02:35:23;1.77;;;1.67;;
14900;SDS011;7542;49.078;9.194;2023-04-10T02:36:26;1.57;;;1.57;;
14900;SDS011;7542;49.078;9.194;2023-04-10T02:37:29;1.87;;;1.77;;
14900;SDS011;7542;49.078;9.194;2023-04-10T02:38:33;1.63;;;1.53;;
14900;SDS011;7542;49.078;9.194;2023-04-10T02:39:35;1.63;;;1.63;;
14900;SDS011;7542;49.078;9.194;2023-04-10T02:40:37;1.37;;;1.37;;
14900;SDS011;7542;49.078;9.194;2023-04-10T02:41:39;1.60;;;1.60;;
14900;SDS011;7542;49.078;9.194;2023-04-10T02:42:41;1.40;;;1.40;;
14900;SDS011;7542;49.078;9.194;2023-04-10T02:43:43;1.40;;;1.40;;
14900;SDS011;7542;49.078;9.194;2023-04-10T02:44:46;1.77;;;1.77;;
14900;SDS011;7542;49.078;9.194;2023-04-10T02:45:49;1.50;;;1.50;;
14900;SDS011;7542;49.078;9.194;2023-04-10T02:46:51;1.50;;;1.50;;
14900;SDS011;7542;49.078;9.194;2023-04-10T02:47:53;1.73;;;1.63;;
14900;SDS011;7542;49.078;9.194;2023-04-10T02:48:55;1.47;;;1.47;;
14900;SDS011;7542;49.078;9.194;2023-04-10T02:49:58;1.37;;;1.37;;
14900;SDS011;7542;49.078;9.194;2023-04-10T02:50:59;1.57;;;1.57;;
14900;SDS011;7542;49.078;9.194;2023-04-10T02:52:01;1.70;;;1.70;;
14900;SDS011;7542;49.078;9.194;2023-04-10T02:53:03;1.70;;;1.60;;
14900;SDS011;7542;49.078;9.194;2023-04-10T02:54:06;1.90;;;1.80;;
14900;SDS011;7542;49.078;9.194;2023-04-10T02:55:08;1.27;;;1.27;;
14900;SDS011;7542;49.078;9.194;2023-04-10T02:56:10;1.80;;;1.77;;
14900;SDS011;7542;49.078;9.194;2023-04-10T02:57:12;1.60;;;1.60;;
14900;SDS011;7542;49.078;9.194;2023-04-10T02:58:14;1.60;;;1.60;;
14900;SDS011;7542;49.078;9.194;2023-04-10T02:59:17;1.63;;;1.63;;
14900;SDS011;7542;49.078;9.194;2023-04-10T03:00:20;1.70;;;1.70;;
14900;SDS011;7542;49.078;9.194;2023-04-10T03:01:23;1.40;;;1.40;;
14900;SDS011;7542;49.078;9.194;2023-04-10T03:02:25;1.53;;;1.53;;
14900;SDS011;7542;49.078;9.194;2023-04-10T03:03:27;1.47;;;1.47;;
14900;SDS011;7542;49.078;9.194;2023-04-10T03:04:30;1.40;;;1.40;;
14900;SDS011;7542;49.078;9.194;2023-04-10T03:05:33;1.60;;;1.60;;
14900;SDS011;7542;49.078;9.194;2023-04-10T03:06:35;1.73;;;1.73;;
14900;SDS011;7542;49.078;9.194;2023-04-10T03:07:37;1.40;;;1.40;;
14900;SDS011;7542;49.078;9.194;2023-04-10T03:08:39;1.33;;;1.33;;
14900;SDS011;7542;49.078;9.194;2023-04-10T03:09:41;1.43;;;1.43;;
14900;SDS011;7542;49.078;9.194;2023-04-10T03:10:43;1.70;;;1.60;;
14900;SDS011;7542;49.078;9.194;2023-04-10T03:11:46;1.80;;;1.70;;
14900;SDS011;7542;49.078;9.194;2023-04-10T03:12:48;1.60;;;1.50;;
14900;SDS011;7542;49.078;9.194;2023-04-10T03:13:50;1.50;;;1.50;;
14900;SDS011;7542;49.078;9.194;2023-04-10T03:14:53;1.47;;;1.47;;
14900;SDS011;7542;49.078;9.194;2023-04-10T03:15:55;1.50;;;1.40;;
14900;SDS011;7542;49.078;9.194;2023-04-10T03:16:57;1.40;;;1.33;;
14900;SDS011;7542;49.078;9.194;2023-04-10T03:17:59;1.63;;;1.63;;
14900;SDS011;7542;49.078;9.194;2023-04-10T03:19:01;1.43;;;1.43;;
14900;SDS011;7542;49.078;9.194;2023-04-10T03:20:03;1.70;;;1.70;;
14900;SDS011;7542;49.078;9.194;2023-04-10T03:21:06;1.60;;;1.60;;
14900;SDS011;7542;49.078;9.194;2023-04-10T03:22:08;1.33;;;1.33;;
14900;SDS011;7542;49.078;9.194;2023-04-10T03:23:11;1.50;;;1.50;;
14900;SDS011;7542;49.078;9.194;2023-04-10T03:24:13;1.43;;;1.43;;
14900;SDS011;7542;49.078;9.194;2023-04-10T03:25:16;1.63;;;1.57;;
14900;SDS011;7542;49.078;9.194;2023-04-10T03:26:18;1.67;;;1.63;;
14900;SDS011;7542;49.078;9.194;2023-04-10T03:27:21;1.70;;;1.60;;
14900;SDS011;7542;49.078;9.194;2023-04-10T03:28:23;1.80;;;1.70;;
14900;SDS011;7542;49.078;9.194;2023-04-10T03:29:25;1.70;;;1.60;;
14900;SDS011;7542;49.078;9.194;2023-04-10T03:30:27;1.77;;;1.77;;
14900;SDS011;7542;49.078;9.194;2023-04-10T03:31:29;1.47;;;1.40;;
14900;SDS011;7542;49.078;9.194;2023-04-10T03:32:31;1.50;;;1.40;;
14900;SDS011;7542;49.078;9.194;2023-04-10T03:33:33;1.63;;;1.63;;
14900;SDS011;7542;49.078;9.194;2023-04-10T03:34:35;1.60;;;1.60;;
14900;SDS011;7542;49.078;9.194;2023-04-10T03:35:37;1.70;;;1.70;;
14900;SDS011;7542;49.078;9.194;2023-04-10T03:36:39;1.60;;;1.50;;
14900;SDS011;7542;49.078;9.194;2023-04-10T03:37:41;1.50;;;1.50;;
14900;SDS011;7542;49.078;9.194;2023-04-10T03:38:43;1.50;;;1.50;;
14900;SDS011;7542;49.078;9.194;2023-04-10T03:39:45;1.70;;;1.70;;
14900;SDS011;7542;49.078;9.194;2023-04-10T03:40:47;1.60;;;1.60;;
14900;SDS011;7542;49.078;9.194;2023-04-10T03:41:49;1.50;;;1.50;;
14900;SDS011;7542;49.078;9.194;2023-04-10T03:42:51;1.53;;;1.53;;
14900;SDS011;7542;49.078;9.194;2023-04-10T03:43:53;1.30;;;1.30;;
14900;SDS011;7542;49.078;9.194;2023-04-10T03:44:56;1.60;;;1.60;;
14900;SDS011;7542;49.078;9.194;2023-04-10T03:45:58;1.40;;;1.40;;
14900;SDS011;7542;49.078;9.194;2023-04-10T03:47:01;1.60;;;1.60;;
14900;SDS011;7542;49.078;9.194;2023-04-10T03:48:04;1.40;;;1.40;;
14900;SDS011;7542;49.078;9.194;2023-04-10T03:49:06;1.33;;;1.33;;
14900;SDS011;7542;49.078;9.194;2023-04-10T03:50:08;1.60;;;1.60;;
14900;SDS011;7542;49.078;9.194;2023-04-10T03:51:10;1.97;;;1.87;;
14900;SDS011;7542;49.078;9.194;2023-04-10T03:52:13;1.50;;;1.50;;
14900;SDS011;7542;49.078;9.194;2023-04-10T03:53:15;1.33;;;1.33;;
14900;SDS011;7542;49.078;9.194;2023-04-10T03:54:17;1.60;;;1.60;;
14900;SDS011;7542;49.078;9.194;2023-04-10T03:55:20;1.60;;;1.60;;
14900;SDS011;7542;49.078;9.194;2023-04-10T03:56:21;1.77;;;1.70;;
14900;SDS011;7542;49.078;9.194;2023-04-10T03:57:24;1.40;;;1.40;;
14900;SDS011;7542;49.078;9.194;2023-04-10T03:58:25;1.30;;;1.30;;
14900;SDS011;7542;49.078;9.194;2023-04-10T03:59:29;1.60;;;1.60;;
14900;SDS011;7542;49.078;9.194;2023-04-10T04:00:39;1.67;;;1.63;;
14900;SDS011;7542;49.078;9.194;2023-04-10T04:01:41;1.50;;;1.50;;
14900;SDS011;7542;49.078;9.194;2023-04-10T04:02:46;1.47;;;1.47;;
14900;SDS011;7542;49.078;9.194;2023-04-10T04:03:51;1.40;;;1.40;;
14900;SDS011;7542;49.078;9.194;2023-04-10T04:04:54;1.50;;;1.50;;
14900;SDS011;7542;49.078;9.194;2023-04-10T04:05:56;1.70;;;1.60;;
14900;SDS011;7542;49.078;9.194;2023-04-10T04:06:57;1.50;;;1.50;;
14900;SDS011;7542;49.078;9.194;2023-04-10T04:07:59;1.67;;;1.57;;
14900;SDS011;7542;49.078;9.194;2023-04-10T04:09:01;1.60;;;1.60;;
14900;SDS011;7542;49.078;9.194;2023-04-10T04:10:04;1.43;;;1.43;;
14900;SDS011;7542;49.078;9.194;2023-04-10T04:11:06;1.50;;;1.50;;
14900;SDS011;7542;49.078;9.194;2023-04-10T04:12:08;1.50;;;1.50;;
14900;SDS011;7542;49.078;9.194;2023-04-10T04:13:10;1.77;;;1.77;;
14900;SDS011;7542;49.078;9.194;2023-04-10T04:14:12;1.50;;;1.50;;
14900;SDS011;7542;49.078;9.194;2023-04-10T04:15:15;1.33;;;1.30;;
14900;SDS011;7542;49.078;9.194;2023-04-10T04:16:17;1.47;;;1.47;;
14900;SDS011;7542;49.078;9.194;2023-04-10T04:17:20;1.67;;;1.67;;
14900;SDS011;7542;49.078;9.194;2023-04-10T04:18:22;1.23;;;1.23;;
14900;SDS011;7542;49.078;9.194;2023-04-10T04:19:24;1.60;;;1.57;;
14900;SDS011;7542;49.078;9.194;2023-04-10T04:20:26;1.67;;;1.67;;
14900;SDS011;7542;49.078;9.194;2023-04-10T04:21:28;1.83;;;1.73;;
14900;SDS011;7542;49.078;9.194;2023-04-10T04:22:31;1.60;;;1.60;;
14900;SDS011;7542;49.078;9.194;2023-04-10T04:23:33;2.03;;;1.93;;
14900;SDS011;7542;49.078;9.194;2023-04-10T04:24:35;1.50;;;1.50;;
14900;SDS011;7542;49.078;9.194;2023-04-10T04:25:37;1.53;;;1.50;;
14900;SDS011;7542;49.078;9.194;2023-04-10T04:26:39;1.50;;;1.50;;
14900;SDS011;7542;49.078;9.194;2023-04-10T04:27:41;1.90;;;1.90;;
14900;SDS011;7542;49.078;9.194;2023-04-10T04:28:43;1.50;;;1.50;;
14900;SDS011;7542;49.078;9.194;2023-04-10T04:29:45;1.80;;;1.80;;
14900;SDS011;7542;49.078;9.194;2023-04-10T04:30:47;1.73;;;1.67;;
14900;SDS011;7542;49.078;9.194;2023-04-10T04:31:49;1.70;;;1.70;;
14900;SDS011;7542;49.078;9.194;2023-04-10T04:32:51;1.83;;;1.73;;
14900;SDS011;7542;49.078;9.194;2023-04-10T04:34:02;1.70;;;1.70;;
14900;SDS011;7542;49.078;9.194;2023-04-10T04:35:04;1.50;;;1.50;;
14900;SDS011;7542;49.078;9.194;2023-04-10T04:36:07;1.40;;;1.40;;
14900;SDS011;7542;49.078;9.194;2023-04-10T04:37:09;1.50;;;1.40;;
14900;SDS011;7542;49.078;9.194;2023-04-10T04:38:11;1.73;;;1.63;;
14900;SDS011;7542;49.078;9.194;2023-04-10T04:39:13;1.63;;;1.53;;
14900;SDS011;7542;49.078;9.194;2023-04-10T04:40:16;1.67;;;1.67;;
14900;SDS011;7542;49.078;9.194;2023-04-10T04:41:18;1.80;;;1.70;;
14900;SDS011;7542;49.078;9.194;2023-04-10T04:42:20;1.50;;;1.40;;
14900;SDS011;7542;49.078;9.194;2023-04-10T04:43:23;1.57;;;1.57;;
14900;SDS011;7542;49.078;9.194;2023-04-10T04:44:25;1.60;;;1.60;;
14900;SDS011;7542;49.078;9.194;2023-04-10T04:45:26;1.40;;;1.40;;
14900;SDS011;7542;49.078;9.194;2023-04-10T04:46:29;1.63;;;1.57;;
14900;SDS011;7542;49.078;9.194;2023-04-10T04:47:51;1.60;;;1.60;;
14900;SDS011;7542;49.078;9.194;2023-04-10T04:48:53;1.60;;;1.60;;
14900;SDS011;7542;49.078;9.194;2023-04-10T04:49:55;1.50;;;1.50;;
14900;SDS011;7542;49.078;9.194;2023-04-10T04:50:58;1.50;;;1.50;;
14900;SDS011;7542;49.078;9.194;2023-04-10T04:51:59;1.80;;;1.70;;
14900;SDS011;7542;49.078;9.194;2023-04-10T04:53:02;1.70;;;1.70;;
14900;SDS011;7542;49.078;9.194;2023-04-10T04:54:12;1.47;;;1.47;;
14900;SDS011;7542;49.078;9.194;2023-04-10T04:55:14;1.50;;;1.50;;
14900;SDS011;7542;49.078;9.194;2023-04-10T04:56:16;1.67;;;1.57;;
14900;SDS011;7542;49.078;9.194;2023-04-10T04:57:18;1.80;;;1.80;;
14900;SDS011;7542;49.078;9.194;2023-04-10T04:58:23;1.40;;;1.40;;
14900;SDS011;7542;49.078;9.194;2023-04-10T04:59:31;1.60;;;1.60;;
14900;SDS011;7542;49.078;9.194;2023-04-10T05:00:33;1.40;;;1.40;;
14900;SDS011;7542;49.078;9.194;2023-04-10T05:01:34;1.60;;;1.60;;
14900;SDS011;7542;49.078;9.194;2023-04-10T05:02:36;1.30;;;1.30;;
14900;SDS011;7542;49.078;9.194;2023-04-10T05:03:39;1.60;;;1.60;;
14900;SDS011;7542;49.078;9.194;2023-04-10T05:04:41;1.60;;;1.60;;
14900;SDS011;7542;49.078;9.194;2023-04-10T05:05:43;1.40;;;1.40;;
14900;SDS011;7542;49.078;9.194;2023-04-10T05:06:45;1.20;;;1.20;;
14900;SDS011;7542;49.078;9.194;2023-04-10T05:07:47;1.60;;;1.60;;
14900;SDS011;7542;49.078;9.194;2023-04-10T05:08:49;1.90;;;1.80;;
14900;SDS011;7542;49.078;9.194;2023-04-10T05:09:53;1.60;;;1.60;;
14900;SDS011;7542;49.078;9.194;2023-04-10T05:10:55;1.77;;;1.70;;
14900;SDS011;7542;49.078;9.194;2023-04-10T05:11:57;1.40;;;1.40;;
14900;SDS011;7542;49.078;9.194;2023-04-10T05:13:00;1.43;;;1.43;;
14900;SDS011;7542;49.078;9.194;2023-04-10T05:14:02;1.67;;;1.67;;
14900;SDS011;7542;49.078;9.194;2023-04-10T05:15:04;1.73;;;1.70;;
14900;SDS011;7542;49.078;9.194;2023-04-10T05:16:07;1.63;;;1.63;;
14900;SDS011;7542;49.078;9.194;2023-04-10T05:17:09;1.50;;;1.50;;
14900;SDS011;7542;49.078;9.194;2023-04-10T05:18:11;1.50;;;1.50;;
14900;SDS011;7542;49.078;9.194;2023-04-10T05:19:14;1.50;;;1.50;;
14900;SDS011;7542;49.078;9.194;2023-04-10T05:20:16;1.57;;;1.57;;
14900;SDS011;7542;49.078;9.194;2023-04-10T05:21:18;1.57;;;1.57;;
14900;SDS011;7542;49.078;9.194;2023-04-10T05:22:20;1.60;;;1.60;;
14900;SDS011;7542;49.078;9.194;2023-04-10T05:23:22;1.60;;;1.60;;
14900;SDS011;7542;49.078;9.194;2023-04-10T05:24:24;1.50;;;1.50;;
14900;SDS011;7542;49.078;9.194;2023-04-10T05:25:26;1.43;;;1.43;;
14900;SDS011;7542;49.078;9.194;2023-04-10T05:26:28;1.40;;;1.40;;
14900;SDS011;7542;49.078;9.194;2023-04-10T05:27:30;1.47;;;1.47;;
14900;SDS011;7542;49.078;9.194;2023-04-10T05:28:32;1.60;;;1.50;;
14900;SDS011;7542;49.078;9.194;2023-04-10T05:29:34;1.57;;;1.57;;
14900;SDS011;7542;49.078;9.194;2023-04-10T05:30:36;1.60;;;1.60;;
14900;SDS011;7542;49.078;9.194;2023-04-10T05:31:38;1.30;;;1.30;;
14900;SDS011;7542;49.078;9.194;2023-04-10T05:32:40;1.67;;;1.67;;
14900;SDS011;7542;49.078;9.194;2023-04-10T05:33:42;1.43;;;1.43;;
14900;SDS011;7542;49.078;9.194;2023-04-10T05:34:44;1.30;;;1.30;;
14900;SDS011;7542;49.078;9.194;2023-04-10T05:35:46;1.50;;;1.50;;
14900;SDS011;7542;49.078;9.194;2023-04-10T05:36:48;1.50;;;1.50;;
14900;SDS011;7542;49.078;9.194;2023-04-10T05:37:50;1.47;;;1.47;;
14900;SDS011;7542;49.078;9.194;2023-04-10T05:38:52;1.43;;;1.43;;
14900;SDS011;7542;49.078;9.194;2023-04-10T05:39:54;1.33;;;1.33;;
14900;SDS011;7542;49.078;9.194;2023-04-10T05:40:56;1.63;;;1.63;;
14900;SDS011;7542;49.078;9.194;2023-04-10T05:41:58;1.37;;;1.37;;
14900;SDS011;7542;49.078;9.194;2023-04-10T05:43:00;1.60;;;1.60;;
14900;SDS011;7542;49.078;9.194;2023-04-10T05:44:04;1.70;;;1.70;;
14900;SDS011;7542;49.078;9.194;2023-04-10T05:45:06;1.33;;;1.33;;
14900;SDS011;7542;49.078;9.194;2023-04-10T05:46:09;1.50;;;1.50;;
14900;SDS011;7542;49.078;9.194;2023-04-10T05:47:12;1.50;;;1.50;;
14900;SDS011;7542;49.078;9.194;2023-04-10T05:48:14;1.47;;;1.47;;
14900;SDS011;7542;49.078;9.194;2023-04-10T05:49:16;1.43;;;1.37;;
14900;SDS011;7542;49.078;9.194;2023-04-10T05:50:18;1.33;;;1.20;;
14900;SDS011;7542;49.078;9.194;2023-04-10T05:51:23;1.73;;;1.73;;
14900;SDS011;7542;49.078;9.194;2023-04-10T05:52:27;1.50;;;1.50;;
14900;SDS011;7542;49.078;9.194;2023-04-10T05:53:30;1.33;;;1.33;;
14900;SDS011;7542;49.078;9.194;2023-04-10T05:54:38;1.60;;;1.60;;
14900;SDS011;7542;49.078;9.194;2023-04-10T05:55:40;1.30;;;1.20;;
14900;SDS011;7542;49.078;9.194;2023-04-10T05:56:42;1.50;;;1.50;;
14900;SDS011;7542;49.078;9.194;2023-04-10T05:57:44;1.50;;;1.50;;
14900;SDS011;7542;49.078;9.194;2023-04-10T05:58:47;1.50;;;1.50;;
14900;SDS011;7542;49.078;9.194;2023-04-10T05:59:51;1.37;;;1.37;;
14900;SDS011;7542;49.078;9.194;2023-04-10T06:00:53;1.60;;;1.60;;
14900;SDS011;7542;49.078;9.194;2023-04-10T06:01:58;2.40;;;1.40;;
14900;SDS011;7542;49.078;9.194;2023-04-10T06:03:01;1.63;;;1.60;;
14900;SDS011;7542;49.078;9.194;2023-04-10T06:04:04;1.47;;;1.47;;
14900;SDS011;7542;49.078;9.194;2023-04-10T06:05:06;1.53;;;1.43;;
14900;SDS011;7542;49.078;9.194;2023-04-10T06:06:11;1.90;;;1.80;;
14900;SDS011;7542;49.078;9.194;2023-04-10T06:07:34;1.77;;;1.67;;
14900;SDS011;7542;49.078;9.194;2023-04-10T06:08:36;2.00;;;1.90;;
14900;SDS011;7542;49.078;9.194;2023-04-10T06:09:38;1.90;;;1.80;;
14900;SDS011;7542;49.078;9.194;2023-04-10T06:10:40;1.63;;;1.60;;
14900;SDS011;7542;49.078;9.194;2023-04-10T06:11:42;1.93;;;1.83;;
14900;SDS011;7542;49.078;9.194;2023-04-10T06:12:44;1.73;;;1.63;;
14900;SDS011;7542;49.078;9.194;2023-04-10T06:13:45;2.00;;;1.90;;
14900;SDS011;7542;49.078;9.194;2023-04-10T06:14:47;1.87;;;1.87;;
14900;SDS011;7542;49.078;9.194;2023-04-10T06:15:49;4.73;;;1.80;;
14900;SDS011;7542;49.078;9.194;2023-04-10T06:16:52;2.13;;;2.03;;
14900;SDS011;7542;49.078;9.194;2023-04-10T06:17:54;2.03;;;1.90;;
14900;SDS011;7542;49.078;9.194;2023-04-10T06:18:56;2.10;;;2.00;;
14900;SDS011;7542;49.078;9.194;2023-04-10T06:20:01;2.13;;;2.00;;
14900;SDS011;7542;49.078;9.194;2023-04-10T06:21:04;2.30;;;2.10;;
14900;SDS011;7542;49.078;9.194;2023-04-10T06:22:07;2.17;;;2.07;;
14900;SDS011;7542;49.078;9.194;2023-04-10T06:23:09;2.60;;;2.40;;
14900;SDS011;7542;49.078;9.194;2023-04-10T06:24:12;2.70;;;2.30;;
14900;SDS011;7542;49.078;9.194;2023-04-10T06:25:14;2.10;;;2.00;;
14900;SDS011;7542;49.078;9.194;2023-04-10T06:26:16;2.33;;;2.20;;
14900;SDS011;7542;49.078;9.194;2023-04-10T06:27:18;3.03;;;2.50;;
14900;SDS011;7542;49.078;9.194;2023-04-10T06:28:20;2.97;;;2.33;;
14900;SDS011;7542;49.078;9.194;2023-04-10T06:29:23;2.67;;;2.47;;
14900;SDS011;7542;49.078;9.194;2023-04-10T06:30:25;2.30;;;2.20;;
14900;SDS011;7542;49.078;9.194;2023-04-10T06:31:27;2.93;;;2.13;;
14900;SDS011;7542;49.078;9.194;2023-04-10T06:32:33;2.57;;;2.47;;
14900;SDS011;7542;49.078;9.194;2023-04-10T06:33:35;2.53;;;2.43;;
14900;SDS011;7542;49.078;9.194;2023-04-10T06:34:37;2.57;;;2.47;;
14900;SDS011;7542;49.078;9.194;2023-04-10T06:35:42;2.23;;;2.13;;
14900;SDS011;7542;49.078;9.194;2023-04-10T06:36:44;5.13;;;4.63;;
14900;SDS011;7542;49.078;9.194;2023-04-10T06:37:46;3.53;;;3.33;;
14900;SDS011;7542;49.078;9.194;2023-04-10T06:38:48;5.97;;;3.03;;
14900;SDS011;7542;49.078;9.194;2023-04-10T06:39:50;2.43;;;2.33;;